createdAt,value
2019-03-01T00:01:48.090Z,20.77
2019-03-01T00:04:17.961Z,18.67
2019-03-01T00:07:21.622Z,12.77
2019-03-01T00:12:40.472Z,19.47
2019-03-01T00:15:22.369Z,20.00
2019-03-01T00:18:04.030Z,19.10
2019-03-01T00:21:00.711Z,19.73
2019-03-01T00:23:54.990Z,20.70
2019-03-01T00:26:33.897Z,23.13
2019-03-01T00:29:33.048Z,24.50
2019-03-01T00:32:26.729Z,24.70
2019-03-01T00:35:05.337Z,14.00
2019-03-01T00:37:59.978Z,12.70
2019-03-01T00:40:44.325Z,20.27
2019-03-01T00:43:43.100Z,15.50
2019-03-01T00:46:09.144Z,16.37
2019-03-01T00:48:35.274Z,15.13
2019-03-01T00:51:01.353Z,24.80
2019-03-01T00:53:28.869Z,21.40
2019-03-01T00:55:54.951Z,17.90
2019-03-01T00:58:21.166Z,19.50
2019-03-01T01:00:47.216Z,26.50
2019-03-01T01:03:13.261Z,18.00
2019-03-01T01:05:39.351Z,18.93
2019-03-01T01:08:05.474Z,24.93
2019-03-01T01:10:31.668Z,16.30
2019-03-01T01:12:57.769Z,13.83
2019-03-01T01:15:23.822Z,16.80
2019-03-01T01:17:49.970Z,17.63
2019-03-01T01:20:16.075Z,20.93
2019-03-01T01:22:42.063Z,18.10
2019-03-01T01:25:12.414Z,23.80
2019-03-01T01:27:38.422Z,25.30
2019-03-01T01:30:10.866Z,17.47
2019-03-01T01:32:36.958Z,15.47
2019-03-01T01:35:04.021Z,15.10
2019-03-01T01:37:30.029Z,13.20
2019-03-01T01:39:56.111Z,22.70
2019-03-01T01:42:22.206Z,20.03
2019-03-01T01:44:48.235Z,18.97
2019-03-01T01:47:14.289Z,20.67
2019-03-01T01:49:40.626Z,23.10
2019-03-01T01:52:06.674Z,17.30
2019-03-01T01:54:32.700Z,27.50
2019-03-01T01:56:58.718Z,18.20
2019-03-01T01:59:24.757Z,20.20
2019-03-01T02:01:50.787Z,17.87
2019-03-01T02:04:16.821Z,18.50
2019-03-01T02:06:42.924Z,18.17
2019-03-01T02:09:17.457Z,18.63
2019-03-01T02:11:43.489Z,17.83
2019-03-01T02:14:09.774Z,20.37
2019-03-01T02:16:55.679Z,24.60
2019-03-01T02:19:21.790Z,18.13
2019-03-01T02:21:47.812Z,20.20
2019-03-01T02:24:13.858Z,16.47
2019-03-01T02:26:39.958Z,17.93
2019-03-01T02:29:06.004Z,24.17
2019-03-01T02:31:32.045Z,20.73
2019-03-01T02:33:58.109Z,16.40
2019-03-01T02:36:24.188Z,11.53
2019-03-01T02:38:50.195Z,15.40
2019-03-01T02:41:18.322Z,23.17
2019-03-01T02:43:44.483Z,21.23
2019-03-01T02:46:10.632Z,17.53
2019-03-01T02:48:36.629Z,15.97
2019-03-01T02:51:02.715Z,26.60
2019-03-01T02:53:29.814Z,21.67
2019-03-01T02:55:55.940Z,28.77
2019-03-01T02:58:22.126Z,18.07
2019-03-01T03:00:48.190Z,20.67
2019-03-01T03:03:14.238Z,25.77
2019-03-01T03:05:45.069Z,20.67
2019-03-01T03:08:11.419Z,17.03
2019-03-01T03:10:37.469Z,15.37
2019-03-01T03:13:05.454Z,28.10
2019-03-01T03:15:46.188Z,20.97
2019-03-01T03:18:12.309Z,18.43
2019-03-01T03:20:38.327Z,20.30
2019-03-01T03:23:06.341Z,18.27
2019-03-01T03:25:32.386Z,16.43
2019-03-01T03:27:58.412Z,18.07
2019-03-01T03:30:24.547Z,16.07
2019-03-01T03:32:50.690Z,19.67
2019-03-01T03:35:16.721Z,17.03
2019-03-01T03:37:43.089Z,13.00
2019-03-01T03:40:10.821Z,14.70
2019-03-01T03:42:37.154Z,13.80
2019-03-01T03:45:06.838Z,15.13
2019-03-01T03:47:32.918Z,15.33
2019-03-01T03:50:00.184Z,13.13
2019-03-01T03:52:26.767Z,10.90
2019-03-01T03:54:52.910Z,10.23
2019-03-01T03:57:18.967Z,12.83
2019-03-01T03:59:45.071Z,11.27
2019-03-01T04:02:11.111Z,17.27
2019-03-01T04:04:37.135Z,11.50
2019-03-01T04:07:03.569Z,7.57
2019-03-01T04:09:29.577Z,16.27
2019-03-01T04:11:55.616Z,12.27
2019-03-01T04:14:21.723Z,14.03
2019-03-01T04:16:47.883Z,10.77
2019-03-01T04:19:13.908Z,11.60
2019-03-01T04:21:40.129Z,12.70
2019-03-01T04:24:06.189Z,8.57
2019-03-01T04:26:32.250Z,13.30
2019-03-01T04:28:58.596Z,19.47
2019-03-01T04:31:24.723Z,16.23
2019-03-01T04:33:50.789Z,12.57
2019-03-01T04:36:16.935Z,12.33
2019-03-01T04:38:43.002Z,11.33
2019-03-01T04:41:09.124Z,12.07
2019-03-01T04:43:35.248Z,9.03
2019-03-01T04:46:01.284Z,7.33
2019-03-01T04:48:27.337Z,8.67
2019-03-01T04:50:53.420Z,10.20
2019-03-01T04:53:20.609Z,16.80
2019-03-01T04:55:46.719Z,14.80
2019-03-01T04:58:12.759Z,17.83
2019-03-01T05:00:38.797Z,14.50
2019-03-01T05:03:04.922Z,21.77
2019-03-01T05:05:31.102Z,14.40
2019-03-01T05:07:57.288Z,18.23
2019-03-01T05:10:23.594Z,15.80
2019-03-01T05:12:49.710Z,11.67
2019-03-01T05:15:19.174Z,9.03
2019-03-01T05:17:45.318Z,10.07
2019-03-01T05:20:11.910Z,13.27
2019-03-01T05:22:37.966Z,8.70
2019-03-01T05:25:25.920Z,17.67
2019-03-01T05:27:52.116Z,10.23
2019-03-01T05:30:18.272Z,14.93
2019-03-01T05:32:44.440Z,13.83
2019-03-01T05:35:10.992Z,10.00
2019-03-01T05:37:37.120Z,8.77
2019-03-01T05:40:09.446Z,16.40
2019-03-01T05:42:35.670Z,10.60
2019-03-01T05:45:02.813Z,15.43
2019-03-01T05:47:28.959Z,9.93
2019-03-01T05:49:55.076Z,11.73
2019-03-01T05:52:22.366Z,16.77
2019-03-01T05:54:48.484Z,11.23
2019-03-01T05:57:14.597Z,14.93
2019-03-01T05:59:40.637Z,13.47
2019-03-01T06:02:10.470Z,14.30
2019-03-01T06:04:40.637Z,16.77
2019-03-01T06:07:27.149Z,12.63
2019-03-01T06:10:12.427Z,14.53
2019-03-01T06:12:54.432Z,14.07
2019-03-01T06:15:46.992Z,11.77
2019-03-01T06:18:50.391Z,11.47
2019-03-01T06:21:48.045Z,12.83
2019-03-01T06:24:36.338Z,10.70
2019-03-01T06:27:16.355Z,13.10
2019-03-01T06:30:07.109Z,9.93
2019-03-01T06:32:56.621Z,12.67
2019-03-01T06:35:29.685Z,11.40
2019-03-01T06:38:27.450Z,12.03
2019-03-01T06:41:23.132Z,10.40
2019-03-01T06:44:11.355Z,13.30
2019-03-01T06:46:52.254Z,11.97
2019-03-01T06:49:20.417Z,9.30
2019-03-01T06:51:46.554Z,13.77
2019-03-01T06:54:12.595Z,9.97
2019-03-01T06:56:38.749Z,8.13
2019-03-01T06:59:04.758Z,7.93
2019-03-01T07:01:31.670Z,9.17
2019-03-01T07:03:59.723Z,5.03
2019-03-01T07:06:25.846Z,8.73
2019-03-01T07:08:52.272Z,7.07
2019-03-01T07:11:18.318Z,5.90
2019-03-01T07:13:44.382Z,10.00
2019-03-01T07:16:10.431Z,4.30
2019-03-01T07:18:36.545Z,6.23
2019-03-01T07:21:02.660Z,6.30
2019-03-01T07:23:36.580Z,8.30
2019-03-01T07:25:56.800Z,7.63
2019-03-01T07:28:23.222Z,10.20
2019-03-01T07:30:49.288Z,5.17
2019-03-01T07:33:15.324Z,7.00
2019-03-01T07:35:41.483Z,9.23
2019-03-01T07:38:07.536Z,8.40
2019-03-01T07:40:33.595Z,10.73
2019-03-01T07:42:59.646Z,8.77
2019-03-01T07:45:25.814Z,8.73
2019-03-01T07:47:53.044Z,9.27
2019-03-01T07:50:19.057Z,6.37
2019-03-01T07:52:45.232Z,10.33
2019-03-01T07:55:11.379Z,8.10
2019-03-01T07:57:37.539Z,9.87
2019-03-01T08:00:15.294Z,8.60
2019-03-01T08:02:41.466Z,9.13
2019-03-01T08:05:14.390Z,8.50
2019-03-01T08:07:41.204Z,9.50
2019-03-01T08:10:09.950Z,9.80
2019-03-01T08:12:38.666Z,9.13
2019-03-01T08:15:09.552Z,8.40
2019-03-01T08:17:36.351Z,11.63
2019-03-01T08:20:05.618Z,7.30
2019-03-01T08:22:31.673Z,9.30
2019-03-01T08:24:57.913Z,8.33
2019-03-01T08:27:25.276Z,18.03
2019-03-01T08:29:51.623Z,12.37
2019-03-01T08:32:17.852Z,12.40
2019-03-01T08:34:43.964Z,16.90
2019-03-01T08:37:10.483Z,10.83
2019-03-01T08:39:39.369Z,11.50
2019-03-01T08:42:04.479Z,13.10
2019-03-01T08:44:30.653Z,11.33
2019-03-01T08:46:56.749Z,16.27
2019-03-01T08:49:23.532Z,12.57
2019-03-01T08:51:49.870Z,10.00
2019-03-01T08:54:16.114Z,16.90
2019-03-01T08:56:42.427Z,12.87
2019-03-01T08:59:08.476Z,11.93
2019-03-01T09:01:34.610Z,10.37
2019-03-01T09:04:04.536Z,10.53
2019-03-01T09:06:30.761Z,12.30
2019-03-01T09:08:56.874Z,14.93
2019-03-01T09:11:22.914Z,11.63
2019-03-01T09:13:49.014Z,9.07
2019-03-01T09:16:15.251Z,9.77
2019-03-01T09:18:41.469Z,9.67
2019-03-01T09:21:12.377Z,11.87
2019-03-01T09:23:35.644Z,9.27
2019-03-01T09:26:01.800Z,9.97
2019-03-01T09:28:28.031Z,10.70
2019-03-01T09:30:54.478Z,9.57
2019-03-01T09:33:21.234Z,11.60
2019-03-01T09:39:23.723Z,9.53
2019-03-01T09:41:49.829Z,9.37
2019-03-01T09:44:15.868Z,12.00
2019-03-01T09:46:41.983Z,13.40
2019-03-01T09:49:08.100Z,16.00
2019-03-01T09:51:34.662Z,12.70
2019-03-01T09:54:00.975Z,13.33
2019-03-01T09:56:27.147Z,8.03
2019-03-01T09:58:53.742Z,7.93
2019-03-01T10:01:20.449Z,6.77
2019-03-01T10:03:47.747Z,9.27
2019-03-01T10:06:13.828Z,11.17
2019-03-01T10:08:40.318Z,8.33
2019-03-01T10:11:06.339Z,10.70
2019-03-01T10:15:58.908Z,5.97
2019-03-01T10:18:25.061Z,10.53
2019-03-01T10:20:51.306Z,6.30
2019-03-01T10:23:17.789Z,7.47
2019-03-01T10:25:43.895Z,6.53
2019-03-01T10:28:10.135Z,8.60
2019-03-01T10:30:36.320Z,11.57
2019-03-01T10:33:03.853Z,8.10
2019-03-01T10:35:30.286Z,8.63
2019-03-01T10:37:56.335Z,8.00
2019-03-01T10:40:26.606Z,7.37
2019-03-01T10:42:53.073Z,13.30
2019-03-01T10:45:29.440Z,16.20
2019-03-01T10:47:55.604Z,13.53
2019-03-01T10:50:21.714Z,10.10
2019-03-01T10:52:50.860Z,9.73
2019-03-01T10:55:20.100Z,6.43
2019-03-01T10:57:47.000Z,8.70
2019-03-01T11:00:27.408Z,11.73
2019-03-01T11:02:54.788Z,5.70
2019-03-01T11:05:21.432Z,7.20
2019-03-01T11:07:48.946Z,8.43
2019-03-01T11:10:27.646Z,8.93
2019-03-01T11:12:53.665Z,6.70
2019-03-01T11:15:19.790Z,4.40
2019-03-01T11:17:45.950Z,7.83
2019-03-01T11:20:14.778Z,10.40
2019-03-01T11:22:40.914Z,7.10
2019-03-01T11:25:12.049Z,7.20
2019-03-01T11:27:38.136Z,9.93
2019-03-01T11:30:08.090Z,10.53
2019-03-01T11:32:34.225Z,10.30
2019-03-01T11:35:00.310Z,9.37
2019-03-01T11:37:26.389Z,8.33
2019-03-01T11:39:52.446Z,9.43
2019-03-01T11:42:18.477Z,11.67
2019-03-01T11:44:44.879Z,6.00
2019-03-01T11:47:11.807Z,7.73
2019-03-01T11:49:38.271Z,9.37
2019-03-01T11:52:06.336Z,8.10
2019-03-01T11:54:35.452Z,6.87
2019-03-01T11:57:01.888Z,10.43
2019-03-01T11:59:28.120Z,11.00
2019-03-01T12:01:54.484Z,8.70
2019-03-01T12:04:20.619Z,7.53
2019-03-01T12:06:46.671Z,8.70
2019-03-01T12:09:12.787Z,12.33
2019-03-01T12:11:39.221Z,23.47
2019-03-01T12:14:06.699Z,16.37
2019-03-01T12:16:32.991Z,21.23
2019-03-01T12:19:01.382Z,11.13
2019-03-01T12:21:27.586Z,10.77
2019-03-01T12:23:53.805Z,14.00
2019-03-01T12:26:19.997Z,6.90
2019-03-01T12:28:46.097Z,13.87
2019-03-01T12:31:12.645Z,10.33
2019-03-01T12:33:39.035Z,17.27
2019-03-01T12:36:05.243Z,8.07
2019-03-01T12:38:31.305Z,10.00
2019-03-01T12:40:57.438Z,10.77
2019-03-01T12:43:23.474Z,10.80
2019-03-01T12:45:49.501Z,10.43
2019-03-01T12:48:15.535Z,13.00
2019-03-01T12:50:46.365Z,9.67
2019-03-01T12:53:12.989Z,15.73
2019-03-01T12:55:39.159Z,10.00
2019-03-01T12:58:05.391Z,14.23
2019-03-01T13:00:32.908Z,24.40
2019-03-01T13:02:59.183Z,27.20
2019-03-01T13:05:29.074Z,16.23
2019-03-01T13:07:54.478Z,50.00
2019-03-01T13:10:25.887Z,78.10
2019-03-01T13:12:51.946Z,97.20
2019-03-01T13:15:18.320Z,35.33
2019-03-01T13:17:44.704Z,19.90
2019-03-01T13:20:13.488Z,41.87
2019-03-01T13:22:39.786Z,20.43
2019-03-01T13:25:08.087Z,32.93
2019-03-01T13:27:34.206Z,18.93
2019-03-01T13:30:00.564Z,11.87
2019-03-01T13:32:26.760Z,10.23
2019-03-01T13:34:52.938Z,7.77
2019-03-01T13:37:20.340Z,14.17
2019-03-01T13:39:48.679Z,14.63
2019-03-01T13:42:14.850Z,8.97
2019-03-01T13:44:41.017Z,14.23
2019-03-01T13:47:08.674Z,6.23
2019-03-01T13:49:35.323Z,12.57
2019-03-01T13:52:02.781Z,16.10
2019-03-01T13:54:29.111Z,8.90
2019-03-01T13:56:55.229Z,8.87
2019-03-01T13:59:21.357Z,10.83
2019-03-01T14:01:47.786Z,9.30
2019-03-01T14:04:13.946Z,8.67
2019-03-01T14:06:40.027Z,14.07
2019-03-01T14:09:10.052Z,11.00
2019-03-01T14:11:36.271Z,9.90
2019-03-01T14:14:02.801Z,21.50
2019-03-01T14:16:29.343Z,32.13
2019-03-01T14:18:55.906Z,49.23
2019-03-01T14:21:22.094Z,45.47
2019-03-01T14:23:49.881Z,41.37
2019-03-01T14:26:18.659Z,50.07
2019-03-01T14:28:44.334Z,53.00
2019-03-01T14:31:12.179Z,80.30
2019-03-01T14:33:38.421Z,63.87
2019-03-01T14:36:04.573Z,38.77
2019-03-01T14:38:31.023Z,32.00
2019-03-01T14:40:59.629Z,62.77
2019-03-01T14:43:25.322Z,22.53
2019-03-01T14:45:51.451Z,40.20
2019-03-01T14:48:17.530Z,24.80
2019-03-01T14:50:45.006Z,14.97
2019-03-01T14:53:11.389Z,13.30
2019-03-01T14:55:46.988Z,9.73
2019-03-01T14:58:31.915Z,15.10
2019-03-01T15:01:13.316Z,14.07
2019-03-01T15:03:39.440Z,10.57
2019-03-01T15:06:06.315Z,12.53
2019-03-01T15:08:32.736Z,7.73
2019-03-01T15:11:04.350Z,9.43
2019-03-01T15:13:31.446Z,9.70
2019-03-01T15:15:57.375Z,11.00
2019-03-01T15:18:25.029Z,9.90
2019-03-01T15:20:51.240Z,8.37
2019-03-01T15:23:17.273Z,8.43
2019-03-01T15:25:47.293Z,11.87
2019-03-01T15:28:13.251Z,10.30
2019-03-01T15:30:42.571Z,11.23
2019-03-01T15:33:08.528Z,7.77
2019-03-01T15:35:36.301Z,10.17
2019-03-01T15:38:03.733Z,9.87
2019-03-01T15:40:31.366Z,11.60
2019-03-01T15:42:58.131Z,9.37
2019-03-01T15:45:24.160Z,23.70
2019-03-01T15:47:50.515Z,25.30
2019-03-01T15:50:16.840Z,68.83
2019-03-01T15:52:45.655Z,41.03
2019-03-01T15:55:12.009Z,34.10
2019-03-01T15:57:39.068Z,70.07
2019-03-01T16:00:15.046Z,103.57
2019-03-01T16:02:41.455Z,33.53
2019-03-01T16:05:11.985Z,21.27
2019-03-01T16:07:38.178Z,64.20
2019-03-01T16:10:10.028Z,117.37
2019-03-01T16:12:37.401Z,11.07
2019-03-01T16:15:07.262Z,12.40
2019-03-01T16:17:33.338Z,11.20
2019-03-01T16:19:59.421Z,10.70
2019-03-01T16:22:38.873Z,14.77
2019-03-01T16:25:08.175Z,9.33
2019-03-01T16:27:34.688Z,6.43
2019-03-01T16:30:05.065Z,11.63
2019-03-01T16:32:31.362Z,17.10
2019-03-01T16:34:58.613Z,14.40
2019-03-01T16:37:25.969Z,8.43
2019-03-01T16:39:56.158Z,7.47
2019-03-01T16:42:20.653Z,8.60
2019-03-01T16:44:46.703Z,8.73
2019-03-01T16:47:12.829Z,7.63
2019-03-01T16:49:39.019Z,31.23
2019-03-01T16:52:05.160Z,9.53
2019-03-01T16:54:31.676Z,11.97
2019-03-01T16:56:57.918Z,8.33
2019-03-01T16:59:24.110Z,10.87
2019-03-01T17:01:50.167Z,17.23
2019-03-01T17:04:16.350Z,48.30
2019-03-01T17:06:45.405Z,12.33
2019-03-01T17:09:11.762Z,14.90
2019-03-01T17:11:41.500Z,10.90
2019-03-01T17:14:08.477Z,12.03
2019-03-01T17:16:34.643Z,16.10
2019-03-01T17:19:00.803Z,14.83
2019-03-01T17:21:26.829Z,11.83
2019-03-01T17:23:54.653Z,13.40
2019-03-01T17:26:29.978Z,13.77
2019-03-01T17:28:55.187Z,18.30
2019-03-01T17:31:23.220Z,11.50
2019-03-01T17:33:50.059Z,23.07
2019-03-01T17:36:16.784Z,17.43
2019-03-01T17:38:46.071Z,12.30
2019-03-01T17:41:12.042Z,14.17
2019-03-01T17:43:38.089Z,18.73
2019-03-01T17:46:04.130Z,9.30
2019-03-01T17:48:30.182Z,13.00
2019-03-01T17:50:56.345Z,11.13
2019-03-01T17:53:22.692Z,13.30
2019-03-01T17:55:48.838Z,10.00
2019-03-01T17:58:14.930Z,9.50
2019-03-01T18:00:45.154Z,16.83
2019-03-01T18:03:11.383Z,14.43
2019-03-01T18:05:40.696Z,15.50
2019-03-01T18:08:05.487Z,13.63
2019-03-01T18:10:33.049Z,11.67
2019-03-01T18:12:59.266Z,12.93
2019-03-01T18:15:25.619Z,15.50
2019-03-01T18:17:52.430Z,13.87
2019-03-01T18:20:18.661Z,11.00
2019-03-01T18:22:45.980Z,13.47
2019-03-01T18:25:13.793Z,13.47
2019-03-01T18:27:40.088Z,13.60
2019-03-01T18:30:16.072Z,13.90
2019-03-01T18:32:41.760Z,13.23
2019-03-01T18:35:11.603Z,15.83
2019-03-01T18:37:38.614Z,28.33
2019-03-01T18:40:08.093Z,19.83
2019-03-01T18:42:38.072Z,20.53
2019-03-01T18:45:07.146Z,21.60
2019-03-01T18:47:35.138Z,23.60
2019-03-01T18:50:01.477Z,24.47
2019-03-01T18:52:27.862Z,31.87
2019-03-01T18:54:54.133Z,22.10
2019-03-01T18:57:20.377Z,22.57
2019-03-01T18:59:46.806Z,23.80
2019-03-01T19:02:16.514Z,21.13
2019-03-01T19:04:44.580Z,24.63
2019-03-01T19:07:11.138Z,27.47
2019-03-01T19:09:37.282Z,27.77
2019-03-01T19:12:03.509Z,25.97
2019-03-01T19:14:29.851Z,30.10
2019-03-01T19:16:55.970Z,32.10
2019-03-01T19:19:24.440Z,32.33
2019-03-01T19:21:52.660Z,36.10
2019-03-01T19:24:18.101Z,26.13
2019-03-01T19:26:44.489Z,30.03
2019-03-01T19:29:11.030Z,28.90
2019-03-01T19:31:37.175Z,31.20
2019-03-01T19:34:03.348Z,30.37
2019-03-01T19:36:29.493Z,26.23
2019-03-01T19:38:56.826Z,29.47
2019-03-01T19:41:23.907Z,28.57
2019-03-01T19:43:54.928Z,38.47
2019-03-01T19:46:20.157Z,31.93
2019-03-01T19:48:46.457Z,30.50
2019-03-01T19:51:12.582Z,30.60
2019-03-01T19:53:38.708Z,28.43
2019-03-01T19:56:04.919Z,27.83
2019-03-01T19:58:31.090Z,28.43
2019-03-01T20:00:57.376Z,33.00
2019-03-01T20:03:23.553Z,31.63
2019-03-01T20:05:50.731Z,31.40
2019-03-01T20:08:16.773Z,33.37
2019-03-01T20:10:42.903Z,31.83
2019-03-01T20:13:09.033Z,32.33
2019-03-01T20:15:35.157Z,28.83
2019-03-01T20:18:01.331Z,32.13
2019-03-01T20:20:29.987Z,35.40
2019-03-01T20:22:56.116Z,30.63
2019-03-01T20:25:22.295Z,33.83
2019-03-01T20:27:48.344Z,34.53
2019-03-01T20:30:30.651Z,31.40
2019-03-01T20:32:57.066Z,35.03
2019-03-01T20:35:25.687Z,32.43
2019-03-01T20:37:52.222Z,32.67
2019-03-01T20:40:18.520Z,34.07
2019-03-01T20:42:45.395Z,33.10
2019-03-01T20:45:25.903Z,30.33
2019-03-01T20:47:53.532Z,33.77
2019-03-01T20:50:19.748Z,34.87
2019-03-01T20:52:46.214Z,34.40
2019-03-01T20:55:12.718Z,34.20
2019-03-01T20:57:38.883Z,40.57
2019-03-01T21:00:08.633Z,29.53
2019-03-01T21:02:35.123Z,31.97
2019-03-01T21:05:01.219Z,37.37
2019-03-01T21:07:27.271Z,32.43
2019-03-01T21:09:53.734Z,37.00
2019-03-01T21:12:20.085Z,34.30
2019-03-01T21:14:46.108Z,30.60
2019-03-01T21:17:16.717Z,27.80
2019-03-01T21:19:43.737Z,32.00
2019-03-01T21:22:11.205Z,37.10
2019-03-01T21:24:37.296Z,41.10
2019-03-01T21:27:03.788Z,30.47
2019-03-01T21:29:30.020Z,33.67
2019-03-01T21:31:56.575Z,35.17
2019-03-01T21:34:29.279Z,33.30
2019-03-01T21:36:55.405Z,34.80
2019-03-01T21:39:24.090Z,39.07
2019-03-01T21:41:51.321Z,34.40
2019-03-01T21:44:17.659Z,37.93
2019-03-01T21:46:44.416Z,31.07
2019-03-01T21:49:10.805Z,33.30
2019-03-01T21:51:37.255Z,37.40
2019-03-01T21:54:04.415Z,35.90
2019-03-01T21:56:34.753Z,35.20
2019-03-01T21:58:58.816Z,33.93
2019-03-01T22:01:24.936Z,34.03
2019-03-01T22:03:51.165Z,33.97
2019-03-01T22:06:20.650Z,36.13
2019-03-01T22:08:48.610Z,32.10
2019-03-01T22:11:14.490Z,32.00
2019-03-01T22:13:42.820Z,34.07
2019-03-01T22:16:09.417Z,33.47
2019-03-01T22:18:36.339Z,33.43
2019-03-01T22:21:02.714Z,38.47
2019-03-01T22:23:30.826Z,38.60
2019-03-01T22:25:58.246Z,34.40
2019-03-01T22:28:24.577Z,36.77
2019-03-01T22:30:50.836Z,38.40
2019-03-01T22:33:17.423Z,36.87
2019-03-01T22:35:47.597Z,51.53
2019-03-01T22:38:13.761Z,43.57
2019-03-01T22:40:40.395Z,45.43
2019-03-01T22:43:08.710Z,45.63
2019-03-01T22:45:35.446Z,36.43
2019-03-01T22:48:01.696Z,39.30
2019-03-01T22:50:27.926Z,39.57
2019-03-01T22:52:54.157Z,37.37
2019-03-01T22:55:20.674Z,34.40
2019-03-01T22:57:46.888Z,38.10
2019-03-01T23:00:46.944Z,40.27
2019-03-01T23:03:15.315Z,38.53
2019-03-01T23:05:43.056Z,37.03
2019-03-01T23:08:09.170Z,35.17
2019-03-01T23:10:35.346Z,32.30
2019-03-01T23:13:01.457Z,32.40
2019-03-01T23:15:27.970Z,37.30
2019-03-01T23:17:54.030Z,38.10
2019-03-01T23:20:26.249Z,36.47
2019-03-01T23:22:48.465Z,33.87
2019-03-01T23:25:14.695Z,37.47
2019-03-01T23:27:41.552Z,38.07
2019-03-01T23:30:10.128Z,38.67
2019-03-01T23:32:38.172Z,39.43
2019-03-01T23:35:05.223Z,36.17
2019-03-01T23:37:31.602Z,38.70
2019-03-01T23:40:00.922Z,42.67
2019-03-01T23:42:26.270Z,32.07
2019-03-01T23:44:52.682Z,43.33
2019-03-01T23:47:18.824Z,35.00
2019-03-01T23:49:46.810Z,34.43
2019-03-01T23:52:12.976Z,35.37
2019-03-01T23:54:40.604Z,34.97
2019-03-01T23:57:08.014Z,42.60
2019-03-01T23:59:40.390Z,41.80
